Time;durP1;ratioP1;P1;durP2;ratioP2;P2;SDS_P1;SDS_P2;PMS_P1;PMS_P2;Temp;Humidity;BMP_temperature;BMP_pressure;BME280_temperature;BME280_humidity;BME280_pressure;Samples;Min_cycle;Max_cycle;Signal;HPM_P1;HPM_P2
2022/09/06 00:00:34;;;;;;;6.63;1.58;;;44.70;21.10;;;;;;5070157;28;20032;-64
2022/09/06 00:03:01;;;;;;;12.25;2.30;;;44.60;21.30;;;;;;5069998;28;20032;-62
2022/09/06 00:05:29;;;;;;;12.02;1.70;;;44.20;27.80;;;;;;5072431;28;20029;-63
2022/09/06 00:07:59;;;;;;;12.32;2.42;;;44.50;28.70;;;;;;5069778;28;20124;-64
2022/09/06 00:10:26;;;;;;;14.10;1.80;;;44.60;21.20;;;;;;5071547;28;20032;-63
2022/09/06 00:12:53;;;;;;;13.07;1.45;;;44.60;20.70;;;;;;5070573;28;20111;-63
2022/09/06 00:15:21;;;;;;;8.57;1.42;;;44.50;21.10;;;;;;5069224;28;20027;-64
2022/09/06 00:17:50;;;;;;;16.45;1.88;;;44.50;21.10;;;;;;5072615;28;20496;-64
2022/09/06 00:20:16;;;;;;;15.48;2.17;;;44.50;21.60;;;;;;5064749;28;20033;-64
2022/09/06 00:22:43;;;;;;;9.23;1.70;;;44.30;22.00;;;;;;5068221;28;20478;-62
2022/09/06 00:25:10;;;;;;;11.57;2.13;;;44.20;22.40;;;;;;5085130;28;20225;-63
2022/09/06 00:27:36;;;;;;;9.27;1.85;;;44.10;22.50;;;;;;5068086;28;20024;-66
2022/09/06 00:30:03;;;;;;;8.98;1.70;;;44.10;22.40;;;;;;5068881;28;20111;-64
2022/09/06 00:32:30;;;;;;;9.38;1.67;;;44.10;22.70;;;;;;5069636;28;20041;-64
2022/09/06 00:34:56;;;;;;;12.32;1.80;;;44.00;21.80;;;;;;5070233;28;20056;-63
2022/09/06 00:37:23;;;;;;;10.82;1.70;;;43.90;22.00;;;;;;5070450;28;20020;-63
2022/09/06 00:39:49;;;;;;;12.60;1.85;;;43.90;21.80;;;;;;5069593;28;20568;-65
2022/09/06 00:42:16;;;;;;;10.10;2.13;;;43.90;21.90;;;;;;5069690;28;20082;-63
2022/09/06 00:44:42;;;;;;;15.80;1.98;;;43.80;21.90;;;;;;5069852;28;20066;-63
2022/09/06 00:47:09;;;;;;;9.73;2.08;;;43.80;22.00;;;;;;5073723;28;20033;-64
2022/09/06 00:49:43;;;;;;;9.73;2.00;;;43.70;22.10;;;;;;5070503;28;20032;-66
2022/09/06 00:52:13;;;;;;;13.57;1.70;;;43.60;22.50;;;;;;5054075;28;20124;-63
2022/09/06 00:54:40;;;;;;;11.15;2.00;;;43.60;22.30;;;;;;5067556;28;20486;-63
2022/09/06 00:57:07;;;;;;;4.28;1.58;;;43.50;22.40;;;;;;5069676;28;20038;-64
2022/09/06 00:59:36;;;;;;;12.32;1.85;;;43.30;22.60;;;;;;5072289;28;20112;-64
2022/09/06 01:02:04;;;;;;;13.77;1.85;;;43.20;22.30;;;;;;5054637;28;20024;-62
2022/09/06 01:04:32;;;;;;;14.73;2.05;;;43.10;22.60;;;;;;5071517;28;20569;-64
2022/09/06 01:07:07;;;;;;;12.02;1.88;;;43.10;23.00;;;;;;5071299;28;20418;-63
2022/09/06 01:09:45;;;;;;;12.90;1.88;;;43.10;22.40;;;;;;5072856;28;20048;-62
2022/09/06 01:12:27;;;;;;;11.60;2.53;;;42.60;49.60;;;;;;5068651;28;20047;-62
2022/09/06 01:15:10;;;;;;;7.90;1.52;;;42.50;40.60;;;;;;5071434;28;20078;-63
2022/09/06 01:17:49;;;;;;;18.48;2.50;;;42.60;32.70;;;;;;5072209;28;20789;-64
2022/09/06 01:20:34;;;;;;;14.30;2.33;;;42.70;22.20;;;;;;5070520;28;20601;-64
2022/09/06 01:23:15;;;;;;;16.52;2.67;;;42.60;22.70;;;;;;5072982;28;20039;-67
2022/09/06 01:25:48;;;;;;;16.73;2.28;;;42.40;22.60;;;;;;5071201;28;20025;-67
2022/09/06 01:28:27;;;;;;;3.85;1.48;;;42.40;22.60;;;;;;5073640;28;20027;-65
2022/09/06 01:31:30;;;;;;;7.78;1.80;;;42.20;22.00;;;;;;5074011;28;20029;-66
2022/09/06 01:34:05;;;;;;;10.88;1.92;;;42.20;22.30;;;;;;5073549;28;20044;-64
2022/09/06 01:36:58;;;;;;;11.63;2.38;;;41.80;29.80;;;;;;5074599;28;20025;-64
2022/09/06 01:39:32;;;;;;;18.95;2.50;;;41.80;28.40;;;;;;5057405;28;20021;-65
2022/09/06 01:42:11;;;;;;;15.55;2.63;;;41.90;23.10;;;;;;5072753;28;20032;-65
2022/09/06 01:44:41;;;;;;;17.42;2.55;;;41.70;22.80;;;;;;5060097;28;20028;-65
2022/09/06 01:47:32;;;;;;;90.50;7.40;;;41.60;23.70;;;;;;5059060;28;20029;-67
2022/09/06 01:50:20;;;;;;;13.38;2.80;;;41.40;23.50;;;;;;5073247;28;20021;-65
2022/09/06 01:53:24;;;;;;;21.48;2.80;;;41.30;24.00;;;;;;5068934;28;20051;-65
2022/09/06 01:56:15;;;;;;;22.98;3.05;;;41.20;23.30;;;;;;5073597;28;20042;-67
2022/09/06 01:58:59;;;;;;;33.63;4.65;;;41.00;23.20;;;;;;5075229;28;20032;-64
2022/09/06 02:01:33;;;;;;;26.17;5.82;;;40.70;48.60;;;;;;5073617;28;21569;-67
2022/09/06 02:04:21;;;;;;;17.10;7.15;;;40.60;33.50;;;;;;5054760;28;20117;-67
2022/09/06 02:06:53;;;;;;;15.40;3.42;;;40.60;23.30;;;;;;5072270;28;20033;-65
2022/09/06 02:09:25;;;;;;;26.10;3.17;;;40.50;24.00;;;;;;5072784;28;20034;-67
2022/09/06 02:11:59;;;;;;;22.38;3.95;;;40.40;24.00;;;;;;5075098;28;20024;-63
2022/09/06 02:14:31;;;;;;;20.67;4.85;;;40.30;24.10;;;;;;5074132;28;20021;-66
2022/09/06 02:16:59;;;;;;;20.70;3.97;;;40.20;23.70;;;;;;5069179;28;20471;-66
2022/09/06 02:20:04;;;;;;;21.17;3.70;;;40.10;24.00;;;;;;5075261;28;20027;-67
2022/09/06 02:22:36;;;;;;;19.40;3.45;;;40.10;24.50;;;;;;5072200;28;20566;-67
2022/09/06 02:25:06;;;;;;;23.20;3.80;;;40.00;25.00;;;;;;5076079;28;20079;-66
2022/09/06 02:27:33;;;;;;;18.10;3.38;;;40.00;25.20;;;;;;5073228;28;20408;-66
2022/09/06 02:30:01;;;;;;;26.77;3.67;;;39.90;25.50;;;;;;5073312;28;20489;-67
2022/09/06 02:32:34;;;;;;;23.08;4.63;;;39.80;25.60;;;;;;5092488;28;20040;-67
2022/09/06 02:35:11;;;;;;;28.00;4.13;;;39.70;26.00;;;;;;5072713;28;20119;-67
2022/09/06 02:37:38;;;;;;;31.25;6.10;;;39.70;26.30;;;;;;5074365;28;20527;-67
2022/09/06 02:40:05;;;;;;;33.63;6.85;;;39.60;26.30;;;;;;5070787;28;20053;-65
2022/09/06 02:42:37;;;;;;;32.17;5.45;;;39.40;26.40;;;;;;5072986;28;20111;-65
2022/09/06 02:45:04;;;;;;;65.43;6.10;;;39.40;26.20;;;;;;5056624;28;20020;-70
2022/09/06 02:47:30;;;;;;;46.70;6.35;;;39.20;27.70;;;;;;5072260;28;20413;-67
2022/09/06 02:49:57;;;;;;;38.42;5.50;;;39.40;27.00;;;;;;5076774;28;20073;-66
2022/09/06 02:52:23;;;;;;;44.78;6.00;;;39.30;27.60;;;;;;5072056;28;20068;-67
2022/09/06 02:54:50;;;;;;;57.13;6.95;;;39.20;28.20;;;;;;5085553;28;20078;-67
2022/09/06 02:57:16;;;;;;;53.38;7.78;;;39.20;28.10;;;;;;5088732;28;20024;-66
2022/09/06 02:59:43;;;;;;;57.97;6.97;;;39.20;28.60;;;;;;5073300;28;20043;-67
2022/09/06 03:02:09;;;;;;;75.53;8.15;;;39.10;28.90;;;;;;5074040;28;20594;-67
2022/09/06 03:04:36;;;;;;;61.95;7.93;;;39.00;29.00;;;;;;5089579;28;20104;-65
2022/09/06 03:07:02;;;;;;;62.28;8.70;;;39.00;29.50;;;;;;5070844;28;20021;-65
2022/09/06 03:09:28;;;;;;;57.65;8.93;;;38.90;29.80;;;;;;5073874;28;20025;-66
2022/09/06 03:11:55;;;;;;;67.70;8.38;;;38.80;30.10;;;;;;5090762;28;20047;-66
2022/09/06 03:14:21;;;;;;;68.15;8.18;;;38.80;30.50;;;;;;5077235;28;20513;-66
2022/09/06 03:16:47;;;;;;;70.88;7.97;;;38.70;31.00;;;;;;5072550;28;20050;-66
2022/09/06 03:19:14;;;;;;;49.85;7.95;;;38.60;31.80;;;;;;5061785;28;20027;-68
2022/09/06 03:21:40;;;;;;;59.85;8.43;;;38.50;32.30;;;;;;5075293;28;20033;-66
2022/09/06 03:24:06;;;;;;;55.70;7.50;;;38.50;32.80;;;;;;5073547;28;20070;-66
2022/09/06 03:26:33;;;;;;;43.97;7.38;;;38.40;33.00;;;;;;5073699;28;20025;-66
2022/09/06 03:28:59;;;;;;;48.17;8.60;;;38.40;33.40;;;;;;5054979;28;20051;-67
2022/09/06 03:31:25;;;;;;;48.45;7.63;;;38.30;33.70;;;;;;5074031;28;20031;-66
2022/09/06 03:33:52;;;;;;;39.42;5.38;;;38.20;34.00;;;;;;5056358;28;20051;-67
2022/09/06 03:36:18;;;;;;;31.58;5.68;;;38.20;34.00;;;;;;5070972;28;20033;-65
2022/09/06 03:38:45;;;;;;;41.25;4.80;;;38.20;34.00;;;;;;5073168;28;20479;-69
2022/09/06 03:41:11;;;;;;;49.05;4.65;;;38.10;34.20;;;;;;5073968;28;20027;-66
2022/09/06 03:43:37;;;;;;;40.60;4.80;;;38.10;34.30;;;;;;5073428;28;20024;-68
2022/09/06 03:46:04;;;;;;;57.50;5.88;;;38.00;34.70;;;;;;5073109;28;20027;-68
2022/09/06 03:48:30;;;;;;;41.17;4.65;;;38.00;35.30;;;;;;5089237;28;20053;-66
2022/09/06 03:50:58;;;;;;;42.35;5.63;;;37.90;34.80;;;;;;5057506;28;20299;-67
2022/09/06 03:53:26;;;;;;;49.40;5.85;;;37.90;35.00;;;;;;5088165;28;20028;-67
2022/09/06 03:55:54;;;;;;;47.70;5.70;;;37.70;35.20;;;;;;5072344;28;20375;-68
2022/09/06 03:58:22;;;;;;;40.95;5.80;;;37.70;35.30;;;;;;5070789;28;20025;-66
2022/09/06 04:00:58;;;;;;;48.10;6.20;;;37.70;35.30;;;;;;5071405;28;20048;-68
2022/09/06 04:03:24;;;;;;;46.47;7.03;;;37.60;35.50;;;;;;5071396;28;20028;-65
2022/09/06 04:05:50;;;;;;;42.70;7.25;;;37.50;35.90;;;;;;5071484;28;20124;-69
2022/09/06 04:08:17;;;;;;;46.40;8.00;;;37.40;36.10;;;;;;5069890;28;20078;-66
2022/09/06 04:10:44;;;;;;;69.78;7.40;;;37.40;36.30;;;;;;5073120;28;20031;-67
2022/09/06 04:13:10;;;;;;;35.70;5.93;;;37.30;36.50;;;;;;5071042;28;20115;-66
2022/09/06 04:15:36;;;;;;;41.88;6.50;;;37.00;51.60;;;;;;5071041;28;20120;-66
2022/09/06 04:18:03;;;;;;;37.88;5.47;;;37.20;37.80;;;;;;5075652;28;20105;-68
2022/09/06 04:20:29;;;;;;;44.05;7.15;;;37.10;37.10;;;;;;5073192;28;20025;-70
2022/09/06 04:22:55;;;;;;;61.90;6.82;;;37.10;37.80;;;;;;5071689;28;20040;-66
2022/09/06 04:25:22;;;;;;;46.75;6.65;;;36.70;51.60;;;;;;5072356;28;20542;-65
2022/09/06 04:27:48;;;;;;;58.42;7.30;;;36.20;57.90;;;;;;5072017;28;20028;-66
2022/09/06 04:30:15;;;;;;;50.17;6.93;;;36.80;37.50;;;;;;5070806;28;20077;-66
2022/09/06 04:32:41;;;;;;;35.25;6.13;;;36.70;47.10;;;;;;5069725;28;20094;-69
2022/09/06 04:35:08;;;;;;;43.15;6.95;;;36.70;38.30;;;;;;5071768;28;20029;-65
2022/09/06 04:37:34;;;;;;;43.65;7.75;;;36.70;38.40;;;;;;5074615;28;20459;-65
2022/09/06 04:40:01;;;;;;;37.05;7.65;;;36.60;38.30;;;;;;5067078;28;20070;-70
2022/09/06 04:42:27;;;;;;;50.08;8.30;;;36.60;38.60;;;;;;5071806;28;20089;-66
2022/09/06 04:44:54;;;;;;;46.67;7.85;;;36.50;38.80;;;;;;5070977;28;20123;-66
2022/09/06 04:47:20;;;;;;;47.88;7.55;;;36.40;38.80;;;;;;5071738;28;20040;-67
2022/09/06 04:49:49;;;;;;;43.72;8.25;;;36.40;38.80;;;;;;5055487;28;20024;-66
2022/09/06 04:52:16;;;;;;;48.67;8.57;;;36.30;39.80;;;;;;5053517;28;20028;-67
2022/09/06 04:54:42;;;;;;;47.08;8.50;;;36.20;39.20;;;;;;5075404;28;20027;-66
2022/09/06 04:57:09;;;;;;;51.80;8.75;;;36.20;39.90;;;;;;5059214;28;20078;-65
2022/09/06 04:59:36;;;;;;;58.33;9.43;;;36.20;40.10;;;;;;5077703;28;20154;-65
2022/09/06 05:02:02;;;;;;;43.13;8.45;;;36.10;40.20;;;;;;5058580;28;20355;-66
2022/09/06 05:04:29;;;;;;;41.20;8.02;;;36.10;40.70;;;;;;5077231;28;20028;-69
2022/09/06 05:07:04;;;;;;;50.90;10.90;;;35.90;41.00;;;;;;5075929;28;20030;-66
2022/09/06 05:09:31;;;;;;;44.25;8.82;;;35.90;41.20;;;;;;5079047;28;20030;-67
2022/09/06 05:11:58;;;;;;;61.20;10.23;;;35.80;60.10;;;;;;5076324;28;20115;-66
2022/09/06 05:14:26;;;;;;;46.97;8.50;;;35.80;40.90;;;;;;5074243;28;20047;-66
2022/09/06 05:16:53;;;;;;;48.47;9.82;;;35.80;41.10;;;;;;5072969;28;20016;-66
2022/09/06 05:19:20;;;;;;;55.92;9.75;;;35.70;41.50;;;;;;5078992;28;20062;-66
2022/09/06 05:21:46;;;;;;;63.22;17.73;;;35.60;41.60;;;;;;5058126;28;20042;-68
2022/09/06 05:24:13;;;;;;;60.40;9.90;;;35.60;41.80;;;;;;5075193;28;20523;-67
2022/09/06 05:26:39;;;;;;;61.78;10.32;;;35.50;41.50;;;;;;5073467;28;20020;-65
2022/09/06 05:29:05;;;;;;;47.72;10.02;;;35.50;41.90;;;;;;5075325;28;20097;-64
2022/09/06 05:31:34;;;;;;;54.05;10.30;;;35.40;42.70;;;;;;5075838;28;20491;-67
2022/09/06 05:34:00;;;;;;;55.70;10.68;;;35.40;42.70;;;;;;5071925;28;20162;-65
2022/09/06 05:36:28;;;;;;;73.90;10.88;;;35.30;42.30;;;;;;5072345;28;20053;-65
2022/09/06 05:38:56;;;;;;;69.07;11.45;;;35.30;42.20;;;;;;5056556;28;20050;-65
2022/09/06 05:41:23;;;;;;;77.43;11.32;;;35.30;42.00;;;;;;5076035;28;20020;-65
2022/09/06 05:43:50;;;;;;;60.00;12.50;;;35.20;42.10;;;;;;5075026;28;20104;-68
2022/09/06 05:46:17;;;;;;;70.97;11.88;;;35.10;41.80;;;;;;5074664;28;20532;-67
2022/09/06 05:48:43;;;;;;;65.40;13.98;;;35.10;42.90;;;;;;5071640;28;20442;-65
2022/09/06 05:51:12;;;;;;;76.60;17.02;;;35.10;43.10;;;;;;5072162;28;20044;-65
2022/09/06 05:53:43;;;;;;;87.75;22.50;;;35.00;42.10;;;;;;5073187;28;20051;-66
2022/09/06 05:56:12;;;;;;;87.55;19.92;;;35.10;41.50;;;;;;5073750;28;20509;-68
2022/09/06 05:58:38;;;;;;;85.30;19.58;;;35.10;41.50;;;;;;5078093;28;20038;-66
2022/09/06 06:01:14;;;;;;;76.82;19.42;;;35.00;41.40;;;;;;5076400;28;20039;-66
2022/09/06 06:03:42;;;;;;;88.68;20.17;;;35.00;41.80;;;;;;5074481;28;20031;-68
2022/09/06 06:06:08;;;;;;;99.78;20.38;;;35.00;41.60;;;;;;5057479;28;20085;-65
2022/09/06 06:08:35;;;;;;;87.07;21.20;;;35.00;41.60;;;;;;5072784;28;20045;-65
2022/09/06 06:11:02;;;;;;;96.47;20.35;;;35.00;41.40;;;;;;5073836;28;20066;-65
2022/09/06 06:13:30;;;;;;;89.00;20.85;;;34.90;42.00;;;;;;5079540;28;20056;-65
2022/09/06 06:15:56;;;;;;;103.38;23.35;;;34.90;42.00;;;;;;5071777;28;20103;-66
2022/09/06 06:18:23;;;;;;;84.53;21.67;;;34.90;41.70;;;;;;5075248;28;20024;-65
2022/09/06 06:20:50;;;;;;;86.13;20.08;;;34.90;41.70;;;;;;5071038;28;20035;-66
2022/09/06 06:23:16;;;;;;;91.03;20.95;;;34.80;41.50;;;;;;5072657;28;20427;-65
2022/09/06 06:25:43;;;;;;;74.05;18.42;;;34.80;41.80;;;;;;5071187;28;20039;-65
2022/09/06 06:28:09;;;;;;;97.30;20.10;;;34.80;41.90;;;;;;5073388;28;20045;-66
2022/09/06 06:30:36;;;;;;;103.05;20.52;;;34.80;41.80;;;;;;5073269;28;20043;-68
2022/09/06 06:33:02;;;;;;;75.90;19.15;;;34.70;41.70;;;;;;5075330;28;20081;-65
2022/09/06 06:35:28;;;;;;;85.72;20.58;;;34.70;41.80;;;;;;5073928;28;20137;-67
2022/09/06 06:37:55;;;;;;;99.38;21.13;;;34.70;42.00;;;;;;5075649;28;20117;-65
2022/09/06 06:40:22;;;;;;;87.78;19.42;;;34.60;42.10;;;;;;5070170;28;20061;-65
2022/09/06 06:42:48;;;;;;;102.78;20.42;;;34.60;42.40;;;;;;5072914;28;20046;-64
2022/09/06 06:45:15;;;;;;;81.35;17.45;;;34.60;42.50;;;;;;5074515;28;20141;-67
2022/09/06 06:47:41;;;;;;;83.90;19.23;;;34.60;43.00;;;;;;5073913;28;20053;-64
2022/09/06 06:50:08;;;;;;;90.10;19.75;;;34.50;42.60;;;;;;5069031;28;20528;-67
2022/09/06 06:52:34;;;;;;;88.78;19.60;;;34.50;42.70;;;;;;5072141;28;20107;-68
2022/09/06 06:55:00;;;;;;;80.55;18.25;;;34.50;43.40;;;;;;5071357;28;20478;-65
2022/09/06 06:57:27;;;;;;;71.28;17.08;;;34.40;52.50;;;;;;5073856;28;20059;-66
2022/09/06 06:59:53;;;;;;;49.65;12.90;;;34.40;43.30;;;;;;5076029;28;20089;-65
2022/09/06 07:02:19;;;;;;;62.47;14.40;;;34.40;43.30;;;;;;5072925;28;20041;-66
2022/09/06 07:04:46;;;;;;;54.55;14.85;;;34.30;43.60;;;;;;5071534;28;20038;-65
2022/09/06 07:07:12;;;;;;;55.10;14.40;;;34.30;43.90;;;;;;5072146;28;20037;-65
2022/09/06 07:09:39;;;;;;;54.42;12.45;;;34.30;44.00;;;;;;5073059;28;20043;-65
2022/09/06 07:12:05;;;;;;;46.90;10.63;;;34.20;44.30;;;;;;5071150;28;20036;-66
2022/09/06 07:14:32;;;;;;;42.33;9.32;;;34.10;43.80;;;;;;5072905;28;20096;-68
2022/09/06 07:16:58;;;;;;;47.00;8.52;;;34.00;44.10;;;;;;5071060;28;20370;-66
2022/09/06 07:19:25;;;;;;;28.63;7.18;;;34.00;43.90;;;;;;5076875;28;20043;-66
2022/09/06 07:21:51;;;;;;;23.55;6.28;;;34.00;44.10;;;;;;5071105;28;20492;-66
2022/09/06 07:24:18;;;;;;;28.63;6.53;;;33.90;43.90;;;;;;5071928;28;20492;-67
2022/09/06 07:26:44;;;;;;;28.80;5.43;;;33.90;44.20;;;;;;5069522;28;20445;-66
2022/09/06 07:29:10;;;;;;;20.77;5.40;;;33.90;44.10;;;;;;5070972;28;20396;-66
2022/09/06 07:31:37;;;;;;;31.55;4.93;;;33.80;44.20;;;;;;5071061;28;20056;-67
2022/09/06 07:34:04;;;;;;;28.70;5.95;;;33.80;44.40;;;;;;5072224;28;20084;-66
2022/09/06 07:36:31;;;;;;;20.15;5.05;;;33.80;44.50;;;;;;5069350;28;20137;-65
2022/09/06 07:38:58;;;;;;;26.83;5.13;;;33.90;44.80;;;;;;5055769;28;20049;-67
2022/09/06 07:41:24;;;;;;;20.25;4.38;;;33.80;44.40;;;;;;5071332;28;20070;-66
2022/09/06 07:43:54;;;;;;;19.20;5.40;;;33.80;44.80;;;;;;5071008;28;20054;-66
2022/09/06 07:46:20;;;;;;;20.23;4.28;;;33.70;45.00;;;;;;5069059;28;20080;-66
2022/09/06 07:48:48;;;;;;;24.80;4.25;;;33.70;44.70;;;;;;5088044;28;20075;-65
2022/09/06 07:51:19;;;;;;;20.70;4.43;;;33.70;45.00;;;;;;5069400;28;20051;-67
2022/09/06 07:53:56;;;;;;;21.95;4.72;;;33.70;44.60;;;;;;5071524;28;20066;-64
2022/09/06 07:56:23;;;;;;;33.88;5.05;;;33.70;44.50;;;;;;5072306;28;20045;-66
2022/09/06 07:58:51;;;;;;;22.08;6.28;;;33.60;44.30;;;;;;5071339;28;20054;-65
2022/09/06 08:01:33;;;;;;;19.90;6.70;;;33.60;44.50;;;;;;5057015;28;20068;-65
2022/09/06 08:04:12;;;;;;;23.20;7.25;;;33.60;44.80;;;;;;5074155;28;20050;-65
2022/09/06 08:06:42;;;;;;;21.92;7.00;;;33.50;45.00;;;;;;5074120;28;20061;-66
2022/09/06 08:09:09;;;;;;;34.42;7.32;;;33.50;44.20;;;;;;5073994;28;20045;-67
2022/09/06 08:11:37;;;;;;;11.98;5.10;;;33.50;45.40;;;;;;5091371;28;20435;-66
2022/09/06 08:14:06;;;;;;;16.52;5.57;;;33.50;45.00;;;;;;5070396;28;20055;-65
2022/09/06 08:16:34;;;;;;;19.92;4.32;;;33.50;45.20;;;;;;5070525;28;20517;-65
2022/09/06 08:19:03;;;;;;;11.68;4.05;;;33.40;45.30;;;;;;5067887;28;20138;-65
2022/09/06 08:21:31;;;;;;;14.50;3.60;;;33.40;45.30;;;;;;5071339;28;20058;-67
2022/09/06 08:24:03;;;;;;;6.28;3.10;;;33.40;44.80;;;;;;5072168;28;20092;-67
2022/09/06 08:26:32;;;;;;;15.57;3.80;;;33.50;44.70;;;;;;5072130;28;20495;-65
2022/09/06 08:29:01;;;;;;;7.68;2.97;;;33.50;44.30;;;;;;5069142;28;20209;-66
2022/09/06 08:31:29;;;;;;;9.73;3.25;;;33.50;45.00;;;;;;5053066;28;20040;-65
2022/09/06 08:33:57;;;;;;;15.43;3.35;;;33.40;45.40;;;;;;5053338;28;20416;-65
2022/09/06 08:36:31;;;;;;;16.40;3.45;;;33.40;45.30;;;;;;5071398;28;20059;-66
2022/09/06 08:38:59;;;;;;;11.27;3.17;;;33.40;45.30;;;;;;5072001;28;20049;-67
2022/09/06 08:41:47;;;;;;;16.27;3.35;;;33.40;45.70;;;;;;5068810;28;20488;-66
2022/09/06 08:44:17;;;;;;;19.10;3.53;;;33.30;45.60;;;;;;5071672;28;20471;-69
2022/09/06 08:46:53;;;;;;;14.07;3.05;;;33.30;45.30;;;;;;5069663;28;20045;-64
2022/09/06 08:49:20;;;;;;;13.80;3.05;;;33.30;45.10;;;;;;5069042;28;20040;-67
2022/09/06 08:52:01;;;;;;;15.45;3.70;;;33.30;45.10;;;;;;5070321;28;20066;-66
2022/09/06 08:54:41;;;;;;;17.58;3.45;;;33.30;45.40;;;;;;5070954;28;20074;-63
2022/09/06 08:57:31;;;;;;;15.73;2.80;;;33.20;45.10;;;;;;5069518;28;20051;-65
2022/09/06 09:00:06;;;;;;;12.07;2.95;;;33.20;44.80;;;;;;5068578;28;20042;-63
2022/09/06 09:02:41;;;;;;;10.82;3.05;;;33.20;44.80;;;;;;5072000;28;20507;-65
2022/09/06 09:05:19;;;;;;;14.68;3.42;;;33.20;44.90;;;;;;5072443;28;20048;-63
2022/09/06 09:07:59;;;;;;;12.93;4.10;;;33.20;45.00;;;;;;5072843;28;20403;-63
2022/09/06 09:10:29;;;;;;;11.20;3.38;;;33.10;45.50;;;;;;5087532;28;20047;-63
2022/09/06 09:13:02;;;;;;;21.50;4.00;;;33.10;45.30;;;;;;5070183;28;20055;-64
2022/09/06 09:15:29;;;;;;;17.50;3.70;;;33.10;45.30;;;;;;5054637;28;20042;-64
2022/09/06 09:17:55;;;;;;;15.27;3.88;;;33.10;45.70;;;;;;5073729;28;20049;-66
2022/09/06 09:20:22;;;;;;;15.43;3.97;;;33.00;44.90;;;;;;5068446;28;20077;-64
2022/09/06 09:22:48;;;;;;;16.85;3.95;;;33.00;45.00;;;;;;5054102;28;20072;-66
2022/09/06 09:25:23;;;;;;;11.00;3.65;;;32.90;45.50;;;;;;5069765;28;20405;-66
2022/09/06 09:27:59;;;;;;;12.95;3.58;;;32.90;45.40;;;;;;5069921;28;20041;-65
2022/09/06 09:30:43;;;;;;;27.75;4.40;;;32.90;45.10;;;;;;5069185;28;20049;-64
2022/09/06 09:33:28;;;;;;;13.73;4.40;;;32.90;45.40;;;;;;5069447;28;20082;-64
2022/09/06 09:35:58;;;;;;;9.23;3.75;;;32.80;45.30;;;;;;5068010;28;20055;-64
2022/09/06 09:38:31;;;;;;;17.58;4.60;;;32.70;45.90;;;;;;5071071;28;20047;-64
2022/09/06 09:41:09;;;;;;;14.60;4.25;;;32.70;46.20;;;;;;5070372;28;20048;-66
2022/09/06 09:44:00;;;;;;;15.57;4.57;;;32.70;46.00;;;;;;5073589;28;20094;-65
2022/09/06 09:46:29;;;;;;;22.42;5.30;;;32.60;45.80;;;;;;5072050;28;20060;-62
2022/09/06 09:49:27;;;;;;;18.58;5.30;;;32.60;45.80;;;;;;5069685;28;20056;-63
2022/09/06 09:52:10;;;;;;;27.98;6.18;;;32.60;46.00;;;;;;5074259;28;20078;-63
2022/09/06 09:54:40;;;;;;;22.25;5.82;;;32.50;46.10;;;;;;5057489;28;20123;-64
2022/09/06 09:57:09;;;;;;;28.35;6.32;;;32.60;47.20;;;;;;5071801;28;20028;-64
2022/09/06 09:59:46;;;;;;;26.50;6.25;;;32.50;46.90;;;;;;5055325;28;20039;-64
2022/09/06 10:02:34;;;;;;;20.42;6.25;;;32.40;47.30;;;;;;5076270;28;20483;-65
2022/09/06 10:05:12;;;;;;;31.20;7.60;;;32.40;47.40;;;;;;5073241;28;20415;-67
2022/09/06 10:07:57;;;;;;;39.75;7.93;;;32.30;46.80;;;;;;5076943;28;20051;-63
2022/09/06 10:10:37;;;;;;;31.25;7.78;;;32.30;46.80;;;;;;5073202;28;20063;-64
2022/09/06 10:13:24;;;;;;;42.65;9.27;;;32.30;46.80;;;;;;5072553;28;20069;-66
2022/09/06 10:15:52;;;;;;;41.53;9.27;;;32.20;46.90;;;;;;5071327;28;20049;-64
2022/09/06 10:18:31;;;;;;;33.33;8.98;;;32.20;47.20;;;;;;5074063;28;20060;-63
2022/09/06 10:21:03;;;;;;;27.23;7.85;;;32.10;47.30;;;;;;5054528;28;20048;-66
2022/09/06 10:23:46;;;;;;;35.85;8.93;;;32.10;47.50;;;;;;5071599;28;20071;-63
2022/09/06 10:26:25;;;;;;;36.55;10.73;;;32.10;48.10;;;;;;5070847;28;20434;-65
2022/09/06 10:28:59;;;;;;;42.22;10.75;;;32.00;48.60;;;;;;5036675;28;20129;-64
2022/09/06 10:31:29;;;;;;;42.42;11.13;;;32.00;48.30;;;;;;5074553;28;20154;-66
2022/09/06 10:34:25;;;;;;;46.65;11.23;;;32.00;47.70;;;;;;5071793;28;20490;-66
2022/09/06 10:37:13;;;;;;;42.22;11.00;;;32.00;47.50;;;;;;5073912;28;20115;-64
2022/09/06 10:39:54;;;;;;;45.67;11.15;;;32.00;47.50;;;;;;5072075;28;20073;-64
2022/09/06 10:42:52;;;;;;;44.47;11.02;;;33.10;52.80;;;;;;5072925;28;20103;-66
2022/09/06 10:45:37;;;;;;;28.92;11.45;;;31.90;47.20;;;;;;5075609;28;20427;-64
2022/09/06 10:48:19;;;;;;;44.38;11.18;;;31.80;48.00;;;;;;5072757;28;20398;-66
2022/09/06 10:51:17;;;;;;;39.35;11.52;;;31.80;48.20;;;;;;5069846;28;20050;-64
2022/09/06 10:54:02;;;;;;;51.13;11.35;;;31.80;48.40;;;;;;5070567;28;20074;-65
2022/09/06 10:56:48;;;;;;;44.38;10.50;;;31.70;48.60;;;;;;5085640;28;20404;-65
2022/09/06 10:59:38;;;;;;;35.35;9.20;;;31.70;48.80;;;;;;5070285;28;20083;-64
2022/09/06 11:02:23;;;;;;;22.95;7.22;;;31.60;48.70;;;;;;5073981;28;20478;-64
2022/09/06 11:04:50;;;;;;;15.80;6.05;;;31.50;48.50;;;;;;5073993;28;20047;-66
2022/09/06 11:07:39;;;;;;;18.23;5.82;;;31.50;48.40;;;;;;5074178;28;20057;-63
2022/09/06 11:10:19;;;;;;;19.52;5.68;;;31.50;48.60;;;;;;5067004;28;20064;-65
2022/09/06 11:12:58;;;;;;;16.52;5.85;;;31.50;48.50;;;;;;5072161;28;20102;-64
2022/09/06 11:15:27;;;;;;;19.23;6.07;;;31.50;48.50;;;;;;5072113;28;20052;-64
2022/09/06 11:18:29;;;;;;;17.48;6.85;;;31.50;48.70;;;;;;5071148;28;20041;-64
2022/09/06 11:21:21;;;;;;;30.08;8.63;;;31.50;48.70;;;;;;5067367;28;20054;-64
2022/09/06 11:24:21;;;;;;;32.63;9.52;;;31.40;49.30;;;;;;5088885;28;20483;-64
2022/09/06 11:26:57;;;;;;;38.15;10.13;;;31.40;49.10;;;;;;5068223;28;20587;-64
2022/09/06 11:29:26;;;;;;;36.88;10.40;;;31.30;49.20;;;;;;5073792;28;20054;-64
2022/09/06 11:31:55;;;;;;;38.95;11.00;;;31.30;49.50;;;;;;5074651;28;20143;-65
2022/09/06 11:34:26;;;;;;;57.67;12.35;;;31.20;49.60;;;;;;5070624;28;20190;-63
2022/09/06 11:37:06;;;;;;;50.15;11.38;;;31.20;49.70;;;;;;5067684;28;20047;-64
2022/09/06 11:39:35;;;;;;;48.13;11.55;;;31.10;50.00;;;;;;5069914;28;20111;-63
2022/09/06 11:42:05;;;;;;;51.58;11.93;;;31.10;50.10;;;;;;5073049;28;20056;-64
2022/09/06 11:44:56;;;;;;;52.53;11.27;;;31.10;50.50;;;;;;5082842;28;20169;-65
2022/09/06 11:47:44;;;;;;;53.30;11.88;;;31.10;50.80;;;;;;5069646;28;20057;-63
2022/09/06 11:50:20;;;;;;;40.65;10.73;;;31.10;50.90;;;;;;5068820;28;20418;-64
2022/09/06 11:53:17;;;;;;;41.63;9.40;;;31.00;51.30;;;;;;5071040;28;20447;-64
2022/09/06 11:55:45;;;;;;;29.08;9.95;;;31.00;52.00;;;;;;5053780;28;20043;-64
2022/09/06 11:58:44;;;;;;;31.75;9.60;;;31.00;52.50;;;;;;5071236;28;20073;-62
2022/09/06 12:01:17;;;;;;;41.42;8.98;;;31.00;53.10;;;;;;5052054;28;20032;-64
2022/09/06 12:03:54;;;;;;;37.45;9.70;;;31.00;53.60;;;;;;5070698;28;20061;-64
2022/09/06 12:06:20;;;;;;;30.23;9.15;;;31.00;54.00;;;;;;5054872;28;20466;-65
2022/09/06 12:08:56;;;;;;;27.30;8.18;;;30.90;54.20;;;;;;5071059;28;20057;-65
2022/09/06 12:11:43;;;;;;;28.15;8.13;;;30.90;54.50;;;;;;5037468;28;20112;-63
2022/09/06 12:14:24;;;;;;;;;;;31.00;55.00;;;;;;5051071;28;20426;-62
2022/09/06 12:16:59;;;;;;;36.03;8.63;;;31.30;61.70;;;;;;5067974;28;19970;-63
2022/09/06 12:19:44;;;;;;;22.85;8.43;;;30.80;55.20;;;;;;5072400;28;20386;-63
2022/09/06 12:22:28;;;;;;;19.38;8.13;;;30.20;75.80;;;;;;5069099;28;20099;-63
2022/09/06 12:24:56;;;;;;;25.50;8.18;;;30.70;55.40;;;;;;5067154;28;20041;-64
2022/09/06 12:27:28;;;;;;;32.10;7.63;;;30.40;65.80;;;;;;5052427;28;20027;-63
2022/09/06 12:30:29;;;;;;;24.17;7.15;;;30.50;82.80;;;;;;5069397;28;20043;-63
2022/09/06 12:32:57;;;;;;;29.95;8.43;;;30.70;54.90;;;;;;5054773;28;20101;-64
2022/09/06 12:35:27;;;;;;;28.15;8.10;;;30.70;54.80;;;;;;5035476;28;20533;-64
2022/09/06 12:38:07;;;;;;;24.63;7.97;;;30.60;74.10;;;;;;5070402;28;20051;-63
2022/09/06 12:40:40;;;;;;;31.20;8.68;;;30.70;55.10;;;;;;5069216;28;20050;-64
2022/09/06 12:43:09;;;;;;;37.60;8.68;;;30.60;55.20;;;;;;5052552;28;20467;-64
2022/09/06 12:45:52;;;;;;;38.55;8.30;;;30.60;55.20;;;;;;5072321;28;20390;-63
2022/09/06 12:48:29;;;;;;;29.00;8.05;;;30.60;55.80;;;;;;5072849;28;20510;-63
2022/09/06 12:51:20;;;;;;;37.92;8.65;;;30.60;87.80;;;;;;5066884;28;20133;-65
2022/09/06 12:54:22;;;;;;;28.15;8.77;;;30.60;57.30;;;;;;5072072;28;20363;-64
2022/09/06 12:56:49;;;;;;;37.95;9.15;;;30.60;56.70;;;;;;5066487;28;20025;-66
2022/09/06 12:59:20;;;;;;;30.85;8.45;;;30.60;57.10;;;;;;5069696;28;20058;-63
2022/09/06 13:01:59;;;;;;;48.10;9.30;;;30.60;57.10;;;;;;5071399;28;20021;-63